sensor_id;sensor_type;location;lat;lon;timestamp;P1;durP1;ratioP1;P2;durP2;ratioP2
62796;SDS011;48839;48.546;-4.178;2023-05-10T00:00:33;21.10;;;3.13;;
62796;SDS011;48839;48.546;-4.178;2023-05-10T00:02:59;19.60;;;4.13;;
62796;SDS011;48839;48.546;-4.178;2023-05-10T00:05:25;24.52;;;4.70;;
62796;SDS011;48839;48.546;-4.178;2023-05-10T00:07:51;19.77;;;2.97;;
62796;SDS011;48839;48.546;-4.178;2023-05-10T00:10:17;18.83;;;3.92;;
62796;SDS011;48839;48.546;-4.178;2023-05-10T00:12:43;26.70;;;3.75;;
62796;SDS011;48839;48.546;-4.178;2023-05-10T00:15:10;14.30;;;3.28;;
62796;SDS011;48839;48.546;-4.178;2023-05-10T00:17:36;19.80;;;4.50;;
62796;SDS011;48839;48.546;-4.178;2023-05-10T00:20:02;18.30;;;3.92;;
62796;SDS011;48839;48.546;-4.178;2023-05-10T00:22:29;17.02;;;3.35;;
62796;SDS011;48839;48.546;-4.178;2023-05-10T00:24:56;19.65;;;3.13;;
62796;SDS011;48839;48.546;-4.178;2023-05-10T00:27:22;28.45;;;4.13;;
62796;SDS011;48839;48.546;-4.178;2023-05-10T00:29:48;14.18;;;3.75;;
62796;SDS011;48839;48.546;-4.178;2023-05-10T00:32:14;16.98;;;3.60;;
62796;SDS011;48839;48.546;-4.178;2023-05-10T00:34:41;19.25;;;3.65;;
62796;SDS011;48839;48.546;-4.178;2023-05-10T00:37:07;20.08;;;3.75;;
62796;SDS011;48839;48.546;-4.178;2023-05-10T00:39:33;17.23;;;3.42;;
62796;SDS011;48839;48.546;-4.178;2023-05-10T00:41:59;18.13;;;3.60;;
62796;SDS011;48839;48.546;-4.178;2023-05-10T00:44:26;18.50;;;3.15;;
62796;SDS011;48839;48.546;-4.178;2023-05-10T00:46:52;24.85;;;3.22;;
62796;SDS011;48839;48.546;-4.178;2023-05-10T00:49:18;14.73;;;3.95;;
62796;SDS011;48839;48.546;-4.178;2023-05-10T00:51:45;18.50;;;2.83;;
62796;SDS011;48839;48.546;-4.178;2023-05-10T00:54:12;16.98;;;3.33;;
62796;SDS011;48839;48.546;-4.178;2023-05-10T00:56:40;23.58;;;3.30;;
62796;SDS011;48839;48.546;-4.178;2023-05-10T00:59:08;10.52;;;2.50;;
62796;SDS011;48839;48.546;-4.178;2023-05-10T01:01:34;29.85;;;3.75;;
62796;SDS011;48839;48.546;-4.178;2023-05-10T01:04:01;16.20;;;2.92;;
62796;SDS011;48839;48.546;-4.178;2023-05-10T01:06:28;20.30;;;3.45;;
62796;SDS011;48839;48.546;-4.178;2023-05-10T01:08:54;18.63;;;3.40;;
62796;SDS011;48839;48.546;-4.178;2023-05-10T01:11:20;21.35;;;3.78;;
62796;SDS011;48839;48.546;-4.178;2023-05-10T01:13:47;16.60;;;2.78;;
62796;SDS011;48839;48.546;-4.178;2023-05-10T01:16:17;18.10;;;3.25;;
62796;SDS011;48839;48.546;-4.178;2023-05-10T01:18:43;19.58;;;3.42;;
62796;SDS011;48839;48.546;-4.178;2023-05-10T01:33:59;13.85;;;3.08;;
62796;SDS011;48839;48.546;-4.178;2023-05-10T01:44:01;18.98;;;3.15;;
62796;SDS011;48839;48.546;-4.178;2023-05-10T01:46:31;18.40;;;2.83;;
62796;SDS011;48839;48.546;-4.178;2023-05-10T01:48:58;16.25;;;2.55;;
62796;SDS011;48839;48.546;-4.178;2023-05-10T01:51:26;23.77;;;4.05;;
62796;SDS011;48839;48.546;-4.178;2023-05-10T01:53:54;17.60;;;3.22;;
62796;SDS011;48839;48.546;-4.178;2023-05-10T01:56:22;27.92;;;4.63;;
62796;SDS011;48839;48.546;-4.178;2023-05-10T01:58:49;16.10;;;3.72;;
62796;SDS011;48839;48.546;-4.178;2023-05-10T02:01:16;15.32;;;3.13;;
62796;SDS011;48839;48.546;-4.178;2023-05-10T02:03:43;16.83;;;4.32;;
62796;SDS011;48839;48.546;-4.178;2023-05-10T02:06:09;16.33;;;3.33;;
62796;SDS011;48839;48.546;-4.178;2023-05-10T02:08:36;17.95;;;3.30;;
62796;SDS011;48839;48.546;-4.178;2023-05-10T02:11:02;19.92;;;3.35;;
62796;SDS011;48839;48.546;-4.178;2023-05-10T02:13:29;21.13;;;3.28;;
62796;SDS011;48839;48.546;-4.178;2023-05-10T02:15:55;10.75;;;3.15;;
62796;SDS011;48839;48.546;-4.178;2023-05-10T02:18:22;28.95;;;4.10;;
62796;SDS011;48839;48.546;-4.178;2023-05-10T02:20:49;21.17;;;3.42;;
62796;SDS011;48839;48.546;-4.178;2023-05-10T02:23:15;21.42;;;3.95;;
62796;SDS011;48839;48.546;-4.178;2023-05-10T02:25:43;13.20;;;3.33;;
62796;SDS011;48839;48.546;-4.178;2023-05-10T02:28:09;19.77;;;4.18;;
62796;SDS011;48839;48.546;-4.178;2023-05-10T02:30:36;8.35;;;3.75;;
62796;SDS011;48839;48.546;-4.178;2023-05-10T02:33:03;19.35;;;3.65;;
62796;SDS011;48839;48.546;-4.178;2023-05-10T02:35:30;14.88;;;4.00;;
62796;SDS011;48839;48.546;-4.178;2023-05-10T02:37:58;16.63;;;2.70;;
62796;SDS011;48839;48.546;-4.178;2023-05-10T02:40:25;22.42;;;3.67;;
62796;SDS011;48839;48.546;-4.178;2023-05-10T02:42:52;13.88;;;2.15;;
62796;SDS011;48839;48.546;-4.178;2023-05-10T02:45:20;18.08;;;3.10;;
62796;SDS011;48839;48.546;-4.178;2023-05-10T02:47:48;18.73;;;3.15;;
62796;SDS011;48839;48.546;-4.178;2023-05-10T02:50:14;18.20;;;3.42;;
62796;SDS011;48839;48.546;-4.178;2023-05-10T02:52:44;15.60;;;2.63;;
62796;SDS011;48839;48.546;-4.178;2023-05-10T02:55:13;16.55;;;3.75;;
62796;SDS011;48839;48.546;-4.178;2023-05-10T02:57:41;22.60;;;3.70;;
62796;SDS011;48839;48.546;-4.178;2023-05-10T03:00:09;23.65;;;3.25;;
62796;SDS011;48839;48.546;-4.178;2023-05-10T03:02:35;15.68;;;2.80;;
62796;SDS011;48839;48.546;-4.178;2023-05-10T03:05:01;10.82;;;2.60;;
62796;SDS011;48839;48.546;-4.178;2023-05-10T03:07:28;19.58;;;2.88;;
62796;SDS011;48839;48.546;-4.178;2023-05-10T03:09:54;14.48;;;3.00;;
62796;SDS011;48839;48.546;-4.178;2023-05-10T03:14:55;10.10;;;2.35;;
62796;SDS011;48839;48.546;-4.178;2023-05-10T03:19:56;16.38;;;2.80;;
62796;SDS011;48839;48.546;-4.178;2023-05-10T03:22:37;13.68;;;2.55;;
62796;SDS011;48839;48.546;-4.178;2023-05-10T03:25:06;14.25;;;2.58;;
62796;SDS011;48839;48.546;-4.178;2023-05-10T03:27:33;20.98;;;4.57;;
62796;SDS011;48839;48.546;-4.178;2023-05-10T03:30:00;16.55;;;3.28;;
62796;SDS011;48839;48.546;-4.178;2023-05-10T03:32:28;10.75;;;2.75;;
62796;SDS011;48839;48.546;-4.178;2023-05-10T03:34:55;13.13;;;3.67;;
62796;SDS011;48839;48.546;-4.178;2023-05-10T03:37:21;20.35;;;3.08;;
62796;SDS011;48839;48.546;-4.178;2023-05-10T03:39:47;19.35;;;3.97;;
62796;SDS011;48839;48.546;-4.178;2023-05-10T03:42:13;17.88;;;3.58;;
62796;SDS011;48839;48.546;-4.178;2023-05-10T03:44:39;17.95;;;2.80;;
62796;SDS011;48839;48.546;-4.178;2023-05-10T03:47:05;16.25;;;3.75;;
62796;SDS011;48839;48.546;-4.178;2023-05-10T03:49:31;15.32;;;3.10;;
62796;SDS011;48839;48.546;-4.178;2023-05-10T03:51:57;14.52;;;2.90;;
62796;SDS011;48839;48.546;-4.178;2023-05-10T03:54:23;15.60;;;3.53;;
62796;SDS011;48839;48.546;-4.178;2023-05-10T03:56:49;15.77;;;3.70;;
62796;SDS011;48839;48.546;-4.178;2023-05-10T03:59:15;17.75;;;2.75;;
62796;SDS011;48839;48.546;-4.178;2023-05-10T04:01:41;14.05;;;3.13;;
62796;SDS011;48839;48.546;-4.178;2023-05-10T04:04:07;13.82;;;2.85;;
62796;SDS011;48839;48.546;-4.178;2023-05-10T04:06:33;16.92;;;3.17;;
62796;SDS011;48839;48.546;-4.178;2023-05-10T04:09:00;16.75;;;3.00;;
62796;SDS011;48839;48.546;-4.178;2023-05-10T04:11:28;18.02;;;3.10;;
62796;SDS011;48839;48.546;-4.178;2023-05-10T04:13:54;14.35;;;2.95;;
62796;SDS011;48839;48.546;-4.178;2023-05-10T04:16:21;13.95;;;2.97;;
62796;SDS011;48839;48.546;-4.178;2023-05-10T04:18:47;16.38;;;2.95;;
62796;SDS011;48839;48.546;-4.178;2023-05-10T04:21:13;15.05;;;3.28;;
62796;SDS011;48839;48.546;-4.178;2023-05-10T04:23:40;16.25;;;3.50;;
62796;SDS011;48839;48.546;-4.178;2023-05-10T04:26:06;23.95;;;3.30;;
62796;SDS011;48839;48.546;-4.178;2023-05-10T04:28:32;19.73;;;3.30;;
62796;SDS011;48839;48.546;-4.178;2023-05-10T04:31:02;19.60;;;3.60;;
62796;SDS011;48839;48.546;-4.178;2023-05-10T04:33:28;18.30;;;2.40;;
62796;SDS011;48839;48.546;-4.178;2023-05-10T04:35:55;16.80;;;3.17;;
62796;SDS011;48839;48.546;-4.178;2023-05-10T04:38:21;18.45;;;3.00;;
62796;SDS011;48839;48.546;-4.178;2023-05-10T04:40:47;18.73;;;4.07;;
62796;SDS011;48839;48.546;-4.178;2023-05-10T04:43:13;13.45;;;2.97;;
62796;SDS011;48839;48.546;-4.178;2023-05-10T04:45:39;17.48;;;4.28;;
62796;SDS011;48839;48.546;-4.178;2023-05-10T04:48:05;12.85;;;2.60;;
62796;SDS011;48839;48.546;-4.178;2023-05-10T04:50:32;16.48;;;2.88;;
62796;SDS011;48839;48.546;-4.178;2023-05-10T04:52:58;16.73;;;3.45;;
62796;SDS011;48839;48.546;-4.178;2023-05-10T04:55:24;19.88;;;4.03;;
62796;SDS011;48839;48.546;-4.178;2023-05-10T04:57:51;12.18;;;4.05;;
62796;SDS011;48839;48.546;-4.178;2023-05-10T05:00:17;18.13;;;3.03;;
62796;SDS011;48839;48.546;-4.178;2023-05-10T05:02:44;23.02;;;3.55;;
62796;SDS011;48839;48.546;-4.178;2023-05-10T05:05:11;18.67;;;3.85;;
62796;SDS011;48839;48.546;-4.178;2023-05-10T05:07:37;19.27;;;4.18;;
62796;SDS011;48839;48.546;-4.178;2023-05-10T05:10:04;13.55;;;3.10;;
62796;SDS011;48839;48.546;-4.178;2023-05-10T05:12:30;21.38;;;3.35;;
62796;SDS011;48839;48.546;-4.178;2023-05-10T05:14:56;18.23;;;3.17;;
62796;SDS011;48839;48.546;-4.178;2023-05-10T05:17:22;10.75;;;2.88;;
62796;SDS011;48839;48.546;-4.178;2023-05-10T05:19:48;25.73;;;3.97;;
62796;SDS011;48839;48.546;-4.178;2023-05-10T05:22:14;19.42;;;3.25;;
62796;SDS011;48839;48.546;-4.178;2023-05-10T05:24:40;9.90;;;2.67;;
62796;SDS011;48839;48.546;-4.178;2023-05-10T05:27:06;25.55;;;3.35;;
62796;SDS011;48839;48.546;-4.178;2023-05-10T05:29:32;21.48;;;3.90;;
62796;SDS011;48839;48.546;-4.178;2023-05-10T05:31:58;18.58;;;3.03;;
62796;SDS011;48839;48.546;-4.178;2023-05-10T05:34:24;15.52;;;2.97;;
62796;SDS011;48839;48.546;-4.178;2023-05-10T05:36:51;17.85;;;3.17;;
62796;SDS011;48839;48.546;-4.178;2023-05-10T05:39:17;14.70;;;2.83;;
62796;SDS011;48839;48.546;-4.178;2023-05-10T05:41:43;10.23;;;2.55;;
62796;SDS011;48839;48.546;-4.178;2023-05-10T05:44:09;10.40;;;2.53;;
62796;SDS011;48839;48.546;-4.178;2023-05-10T05:46:35;15.18;;;2.30;;
62796;SDS011;48839;48.546;-4.178;2023-05-10T05:49:01;12.38;;;3.20;;
62796;SDS011;48839;48.546;-4.178;2023-05-10T05:51:27;14.65;;;2.47;;
62796;SDS011;48839;48.546;-4.178;2023-05-10T05:53:53;15.52;;;3.22;;
62796;SDS011;48839;48.546;-4.178;2023-05-10T05:56:19;12.85;;;2.85;;
62796;SDS011;48839;48.546;-4.178;2023-05-10T05:58:49;10.00;;;2.47;;
62796;SDS011;48839;48.546;-4.178;2023-05-10T06:01:15;10.68;;;3.08;;
62796;SDS011;48839;48.546;-4.178;2023-05-10T06:03:41;24.45;;;3.50;;
62796;SDS011;48839;48.546;-4.178;2023-05-10T06:06:07;10.65;;;2.08;;
62796;SDS011;48839;48.546;-4.178;2023-05-10T06:08:33;15.20;;;2.78;;
62796;SDS011;48839;48.546;-4.178;2023-05-10T06:11:00;19.83;;;3.20;;
62796;SDS011;48839;48.546;-4.178;2023-05-10T06:13:26;15.70;;;2.60;;
62796;SDS011;48839;48.546;-4.178;2023-05-10T06:15:57;12.38;;;2.80;;
62796;SDS011;48839;48.546;-4.178;2023-05-10T06:18:23;11.65;;;2.78;;
62796;SDS011;48839;48.546;-4.178;2023-05-10T06:20:50;11.32;;;2.70;;
62796;SDS011;48839;48.546;-4.178;2023-05-10T06:23:16;17.13;;;2.85;;
62796;SDS011;48839;48.546;-4.178;2023-05-10T06:25:42;11.23;;;2.65;;
62796;SDS011;48839;48.546;-4.178;2023-05-10T06:28:09;12.93;;;2.17;;
62796;SDS011;48839;48.546;-4.178;2023-05-10T06:30:35;10.98;;;2.60;;
62796;SDS011;48839;48.546;-4.178;2023-05-10T06:33:02;10.10;;;1.80;;
62796;SDS011;48839;48.546;-4.178;2023-05-10T06:35:28;11.73;;;2.53;;
62796;SDS011;48839;48.546;-4.178;2023-05-10T06:37:54;11.63;;;2.58;;
62796;SDS011;48839;48.546;-4.178;2023-05-10T06:40:20;12.43;;;2.45;;
62796;SDS011;48839;48.546;-4.178;2023-05-10T06:42:47;12.38;;;2.00;;
62796;SDS011;48839;48.546;-4.178;2023-05-10T06:45:13;13.25;;;2.95;;
62796;SDS011;48839;48.546;-4.178;2023-05-10T06:47:40;15.15;;;2.88;;
62796;SDS011;48839;48.546;-4.178;2023-05-10T06:50:07;12.90;;;2.13;;
62796;SDS011;48839;48.546;-4.178;2023-05-10T06:52:33;7.03;;;2.80;;
62796;SDS011;48839;48.546;-4.178;2023-05-10T06:54:59;5.90;;;1.83;;
62796;SDS011;48839;48.546;-4.178;2023-05-10T06:57:25;9.48;;;1.48;;
62796;SDS011;48839;48.546;-4.178;2023-05-10T06:59:51;7.65;;;1.58;;
62796;SDS011;48839;48.546;-4.178;2023-05-10T07:02:17;4.22;;;1.27;;
62796;SDS011;48839;48.546;-4.178;2023-05-10T07:04:43;5.20;;;1.38;;
62796;SDS011;48839;48.546;-4.178;2023-05-10T07:07:09;4.75;;;1.02;;
62796;SDS011;48839;48.546;-4.178;2023-05-10T07:09:35;7.35;;;1.50;;
62796;SDS011;48839;48.546;-4.178;2023-05-10T07:12:02;2.30;;;1.55;;
62796;SDS011;48839;48.546;-4.178;2023-05-10T07:14:28;5.43;;;1.48;;
62796;SDS011;48839;48.546;-4.178;2023-05-10T07:16:54;6.82;;;1.63;;
62796;SDS011;48839;48.546;-4.178;2023-05-10T07:19:20;11.98;;;2.33;;
62796;SDS011;48839;48.546;-4.178;2023-05-10T07:21:46;9.85;;;2.55;;
62796;SDS011;48839;48.546;-4.178;2023-05-10T07:24:12;12.68;;;1.75;;
62796;SDS011;48839;48.546;-4.178;2023-05-10T07:26:39;13.02;;;1.73;;
62796;SDS011;48839;48.546;-4.178;2023-05-10T07:29:05;5.68;;;1.73;;
62796;SDS011;48839;48.546;-4.178;2023-05-10T07:31:31;13.95;;;3.30;;
62796;SDS011;48839;48.546;-4.178;2023-05-10T07:33:57;16.20;;;2.33;;
62796;SDS011;48839;48.546;-4.178;2023-05-10T07:36:23;17.00;;;2.83;;
62796;SDS011;48839;48.546;-4.178;2023-05-10T07:38:49;12.00;;;2.33;;
62796;SDS011;48839;48.546;-4.178;2023-05-10T07:41:16;15.23;;;2.65;;
62796;SDS011;48839;48.546;-4.178;2023-05-10T07:43:42;8.85;;;2.40;;
62796;SDS011;48839;48.546;-4.178;2023-05-10T07:46:08;4.53;;;1.23;;
62796;SDS011;48839;48.546;-4.178;2023-05-10T07:48:36;4.40;;;1.00;;
62796;SDS011;48839;48.546;-4.178;2023-05-10T07:51:02;9.15;;;1.30;;
62796;SDS011;48839;48.546;-4.178;2023-05-10T07:53:28;4.85;;;1.83;;
62796;SDS011;48839;48.546;-4.178;2023-05-10T07:55:54;3.13;;;1.13;;
62796;SDS011;48839;48.546;-4.178;2023-05-10T07:58:23;5.65;;;1.58;;
62796;SDS011;48839;48.546;-4.178;2023-05-10T08:00:49;5.57;;;2.35;;
62796;SDS011;48839;48.546;-4.178;2023-05-10T08:03:15;4.55;;;1.10;;
62796;SDS011;48839;48.546;-4.178;2023-05-10T08:05:41;6.97;;;1.55;;
62796;SDS011;48839;48.546;-4.178;2023-05-10T08:08:07;8.70;;;1.25;;
62796;SDS011;48839;48.546;-4.178;2023-05-10T08:10:33;6.47;;;1.00;;
62796;SDS011;48839;48.546;-4.178;2023-05-10T08:12:59;6.40;;;1.02;;
62796;SDS011;48839;48.546;-4.178;2023-05-10T08:15:25;8.57;;;1.40;;
62796;SDS011;48839;48.546;-4.178;2023-05-10T08:17:52;5.30;;;1.08;;
62796;SDS011;48839;48.546;-4.178;2023-05-10T08:20:18;11.10;;;1.27;;
62796;SDS011;48839;48.546;-4.178;2023-05-10T08:22:47;9.80;;;1.85;;
62796;SDS011;48839;48.546;-4.178;2023-05-10T08:25:13;4.03;;;1.13;;
62796;SDS011;48839;48.546;-4.178;2023-05-10T08:27:39;12.82;;;1.40;;
62796;SDS011;48839;48.546;-4.178;2023-05-10T08:30:06;11.32;;;1.52;;
62796;SDS011;48839;48.546;-4.178;2023-05-10T08:32:33;7.00;;;1.40;;
62796;SDS011;48839;48.546;-4.178;2023-05-10T08:34:59;8.27;;;1.75;;
62796;SDS011;48839;48.546;-4.178;2023-05-10T08:37:25;7.00;;;1.60;;
62796;SDS011;48839;48.546;-4.178;2023-05-10T08:39:51;13.13;;;2.13;;
62796;SDS011;48839;48.546;-4.178;2023-05-10T08:42:19;9.77;;;1.98;;
62796;SDS011;48839;48.546;-4.178;2023-05-10T08:44:48;8.02;;;1.40;;
62796;SDS011;48839;48.546;-4.178;2023-05-10T08:47:16;6.93;;;1.48;;
62796;SDS011;48839;48.546;-4.178;2023-05-10T08:49:42;9.77;;;2.30;;
62796;SDS011;48839;48.546;-4.178;2023-05-10T08:52:09;11.75;;;1.50;;
62796;SDS011;48839;48.546;-4.178;2023-05-10T08:54:37;5.43;;;1.33;;
62796;SDS011;48839;48.546;-4.178;2023-05-10T08:57:03;6.45;;;1.50;;
62796;SDS011;48839;48.546;-4.178;2023-05-10T08:59:29;10.73;;;1.45;;
62796;SDS011;48839;48.546;-4.178;2023-05-10T09:01:57;10.57;;;1.77;;
62796;SDS011;48839;48.546;-4.178;2023-05-10T09:04:24;6.72;;;1.20;;
62796;SDS011;48839;48.546;-4.178;2023-05-10T09:06:50;7.13;;;1.23;;
62796;SDS011;48839;48.546;-4.178;2023-05-10T09:09:16;9.70;;;1.73;;
62796;SDS011;48839;48.546;-4.178;2023-05-10T09:11:43;7.68;;;1.25;;
62796;SDS011;48839;48.546;-4.178;2023-05-10T09:14:09;6.07;;;1.17;;
62796;SDS011;48839;48.546;-4.178;2023-05-10T09:16:36;11.23;;;1.55;;
62796;SDS011;48839;48.546;-4.178;2023-05-10T09:19:02;4.05;;;1.10;;
62796;SDS011;48839;48.546;-4.178;2023-05-10T09:21:28;5.88;;;1.30;;
62796;SDS011;48839;48.546;-4.178;2023-05-10T09:23:55;4.30;;;1.30;;
62796;SDS011;48839;48.546;-4.178;2023-05-10T09:26:22;5.82;;;2.00;;
62796;SDS011;48839;48.546;-4.178;2023-05-10T09:28:55;6.95;;;1.17;;
62796;SDS011;48839;48.546;-4.178;2023-05-10T09:31:21;5.50;;;1.50;;
62796;SDS011;48839;48.546;-4.178;2023-05-10T09:33:49;6.13;;;1.30;;
62796;SDS011;48839;48.546;-4.178;2023-05-10T09:36:15;4.93;;;1.50;;
62796;SDS011;48839;48.546;-4.178;2023-05-10T09:38:45;7.18;;;1.27;;
62796;SDS011;48839;48.546;-4.178;2023-05-10T09:41:15;4.25;;;1.33;;
62796;SDS011;48839;48.546;-4.178;2023-05-10T09:43:42;4.20;;;1.27;;
62796;SDS011;48839;48.546;-4.178;2023-05-10T09:46:08;2.70;;;0.90;;
62796;SDS011;48839;48.546;-4.178;2023-05-10T09:48:41;4.38;;;1.10;;
62796;SDS011;48839;48.546;-4.178;2023-05-10T09:51:08;7.25;;;1.20;;
62796;SDS011;48839;48.546;-4.178;2023-05-10T09:53:34;12.48;;;2.28;;
62796;SDS011;48839;48.546;-4.178;2023-05-10T09:56:00;7.32;;;1.30;;
62796;SDS011;48839;48.546;-4.178;2023-05-10T09:58:26;6.55;;;1.65;;
62796;SDS011;48839;48.546;-4.178;2023-05-10T10:00:52;9.93;;;1.52;;
62796;SDS011;48839;48.546;-4.178;2023-05-10T10:03:21;3.67;;;0.95;;
62796;SDS011;48839;48.546;-4.178;2023-05-10T10:05:48;6.10;;;1.10;;
62796;SDS011;48839;48.546;-4.178;2023-05-10T10:08:15;5.20;;;1.52;;
62796;SDS011;48839;48.546;-4.178;2023-05-10T10:10:41;10.85;;;1.42;;
62796;SDS011;48839;48.546;-4.178;2023-05-10T10:13:10;6.40;;;1.20;;
62796;SDS011;48839;48.546;-4.178;2023-05-10T10:15:36;6.88;;;1.20;;
62796;SDS011;48839;48.546;-4.178;2023-05-10T10:18:02;5.93;;;1.77;;
62796;SDS011;48839;48.546;-4.178;2023-05-10T10:20:29;4.13;;;1.25;;
62796;SDS011;48839;48.546;-4.178;2023-05-10T10:22:55;9.02;;;1.27;;
62796;SDS011;48839;48.546;-4.178;2023-05-10T10:25:21;6.88;;;1.33;;
62796;SDS011;48839;48.546;-4.178;2023-05-10T10:33:01;4.78;;;1.30;;
62796;SDS011;48839;48.546;-4.178;2023-05-10T10:35:32;2.88;;;0.95;;
62796;SDS011;48839;48.546;-4.178;2023-05-10T10:37:59;8.70;;;0.90;;
62796;SDS011;48839;48.546;-4.178;2023-05-10T10:40:26;4.50;;;1.10;;
62796;SDS011;48839;48.546;-4.178;2023-05-10T10:42:53;4.18;;;0.70;;
62796;SDS011;48839;48.546;-4.178;2023-05-10T10:45:19;4.80;;;1.08;;
62796;SDS011;48839;48.546;-4.178;2023-05-10T10:47:46;5.35;;;0.90;;
62796;SDS011;48839;48.546;-4.178;2023-05-10T10:50:12;6.13;;;1.30;;
62796;SDS011;48839;48.546;-4.178;2023-05-10T10:52:38;9.80;;;2.00;;
62796;SDS011;48839;48.546;-4.178;2023-05-10T10:55:15;8.75;;;1.30;;
62796;SDS011;48839;48.546;-4.178;2023-05-10T11:00:28;6.90;;;1.60;;
62796;SDS011;48839;48.546;-4.178;2023-05-10T11:07:51;5.55;;;1.33;;
62796;SDS011;48839;48.546;-4.178;2023-05-10T11:10:19;6.47;;;1.70;;
62796;SDS011;48839;48.546;-4.178;2023-05-10T11:15:37;5.63;;;1.10;;
62796;SDS011;48839;48.546;-4.178;2023-05-10T11:21:07;4.28;;;0.90;;
62796;SDS011;48839;48.546;-4.178;2023-05-10T11:26:13;6.60;;;1.23;;
62796;SDS011;48839;48.546;-4.178;2023-05-10T11:28:43;2.10;;;0.80;;
62796;SDS011;48839;48.546;-4.178;2023-05-10T11:31:09;3.95;;;0.85;;
62796;SDS011;48839;48.546;-4.178;2023-05-10T11:33:44;6.78;;;1.48;;
62796;SDS011;48839;48.546;-4.178;2023-05-10T11:36:14;5.65;;;1.40;;
62796;SDS011;48839;48.546;-4.178;2023-05-10T11:38:40;4.53;;;1.50;;
62796;SDS011;48839;48.546;-4.178;2023-05-10T11:41:09;8.38;;;1.30;;
62796;SDS011;48839;48.546;-4.178;2023-05-10T11:43:36;2.78;;;0.90;;
62796;SDS011;48839;48.546;-4.178;2023-05-10T11:46:04;6.00;;;0.90;;
62796;SDS011;48839;48.546;-4.178;2023-05-10T11:48:31;5.15;;;1.15;;
62796;SDS011;48839;48.546;-4.178;2023-05-10T11:50:57;4.43;;;1.00;;
62796;SDS011;48839;48.546;-4.178;2023-05-10T11:53:24;3.10;;;0.75;;
62796;SDS011;48839;48.546;-4.178;2023-05-10T11:55:52;5.80;;;0.85;;
62796;SDS011;48839;48.546;-4.178;2023-05-10T11:58:18;4.53;;;1.17;;
62796;SDS011;48839;48.546;-4.178;2023-05-10T12:00:46;1.50;;;0.70;;
62796;SDS011;48839;48.546;-4.178;2023-05-10T12:03:13;3.45;;;0.70;;
62796;SDS011;48839;48.546;-4.178;2023-05-10T12:05:39;3.63;;;0.85;;
62796;SDS011;48839;48.546;-4.178;2023-05-10T12:08:13;3.17;;;0.70;;
62796;SDS011;48839;48.546;-4.178;2023-05-10T12:10:39;4.90;;;0.98;;
62796;SDS011;48839;48.546;-4.178;2023-05-10T12:13:05;2.03;;;1.08;;
62796;SDS011;48839;48.546;-4.178;2023-05-10T12:15:34;4.68;;;1.52;;
62796;SDS011;48839;48.546;-4.178;2023-05-10T12:18:00;8.15;;;1.15;;
62796;SDS011;48839;48.546;-4.178;2023-05-10T12:20:27;3.47;;;1.25;;
62796;SDS011;48839;48.546;-4.178;2023-05-10T12:22:54;4.15;;;1.83;;
62796;SDS011;48839;48.546;-4.178;2023-05-10T12:25:21;4.65;;;1.00;;
62796;SDS011;48839;48.546;-4.178;2023-05-10T12:27:54;7.28;;;1.30;;
62796;SDS011;48839;48.546;-4.178;2023-05-10T12:30:24;4.93;;;1.25;;
62796;SDS011;48839;48.546;-4.178;2023-05-10T12:32:51;5.63;;;1.30;;
62796;SDS011;48839;48.546;-4.178;2023-05-10T12:35:17;4.05;;;1.05;;
62796;SDS011;48839;48.546;-4.178;2023-05-10T12:37:48;6.38;;;1.02;;
62796;SDS011;48839;48.546;-4.178;2023-05-10T12:40:15;3.08;;;1.00;;
62796;SDS011;48839;48.546;-4.178;2023-05-10T12:42:41;5.55;;;1.55;;
62796;SDS011;48839;48.546;-4.178;2023-05-10T12:45:08;5.13;;;1.40;;
62796;SDS011;48839;48.546;-4.178;2023-05-10T12:47:34;7.80;;;1.20;;
62796;SDS011;48839;48.546;-4.178;2023-05-10T12:50:01;5.47;;;1.00;;
62796;SDS011;48839;48.546;-4.178;2023-05-10T12:52:27;4.82;;;1.42;;
62796;SDS011;48839;48.546;-4.178;2023-05-10T12:54:53;2.60;;;0.65;;
62796;SDS011;48839;48.546;-4.178;2023-05-10T12:57:20;5.40;;;1.25;;
62796;SDS011;48839;48.546;-4.178;2023-05-10T12:59:46;6.55;;;1.10;;
62796;SDS011;48839;48.546;-4.178;2023-05-10T13:02:12;3.67;;;0.93;;
62796;SDS011;48839;48.546;-4.178;2023-05-10T13:04:39;6.88;;;1.20;;
62796;SDS011;48839;48.546;-4.178;2023-05-10T13:07:08;4.82;;;1.10;;
62796;SDS011;48839;48.546;-4.178;2023-05-10T13:09:34;4.90;;;0.82;;
62796;SDS011;48839;48.546;-4.178;2023-05-10T13:12:01;6.05;;;1.25;;
62796;SDS011;48839;48.546;-4.178;2023-05-10T13:14:27;1.98;;;1.10;;
62796;SDS011;48839;48.546;-4.178;2023-05-10T13:16:53;2.63;;;0.70;;
62796;SDS011;48839;48.546;-4.178;2023-05-10T13:19:19;3.80;;;0.98;;
62796;SDS011;48839;48.546;-4.178;2023-05-10T13:21:45;5.07;;;0.50;;
62796;SDS011;48839;48.546;-4.178;2023-05-10T13:24:11;6.93;;;0.70;;
62796;SDS011;48839;48.546;-4.178;2023-05-10T13:26:40;2.33;;;0.70;;
62796;SDS011;48839;48.546;-4.178;2023-05-10T13:29:07;2.97;;;0.68;;
62796;SDS011;48839;48.546;-4.178;2023-05-10T13:31:33;8.27;;;1.27;;
62796;SDS011;48839;48.546;-4.178;2023-05-10T13:33:59;5.30;;;1.05;;
62796;SDS011;48839;48.546;-4.178;2023-05-10T13:36:25;1.27;;;0.52;;
62796;SDS011;48839;48.546;-4.178;2023-05-10T13:38:51;2.63;;;0.90;;
62796;SDS011;48839;48.546;-4.178;2023-05-10T13:41:18;3.03;;;0.60;;
62796;SDS011;48839;48.546;-4.178;2023-05-10T13:43:44;2.28;;;0.43;;
62796;SDS011;48839;48.546;-4.178;2023-05-10T13:46:10;3.50;;;0.90;;
62796;SDS011;48839;48.546;-4.178;2023-05-10T13:48:36;3.78;;;1.25;;
62796;SDS011;48839;48.546;-4.178;2023-05-10T13:51:02;3.00;;;0.50;;
62796;SDS011;48839;48.546;-4.178;2023-05-10T13:53:28;2.80;;;0.88;;
62796;SDS011;48839;48.546;-4.178;2023-05-10T13:55:54;5.95;;;1.17;;
62796;SDS011;48839;48.546;-4.178;2023-05-10T13:58:20;1.38;;;0.77;;
62796;SDS011;48839;48.546;-4.178;2023-05-10T14:00:46;7.35;;;1.45;;
62796;SDS011;48839;48.546;-4.178;2023-05-10T14:03:12;2.67;;;0.68;;
62796;SDS011;48839;48.546;-4.178;2023-05-10T14:05:38;1.70;;;1.00;;
62796;SDS011;48839;48.546;-4.178;2023-05-10T14:08:04;2.58;;;0.60;;
62796;SDS011;48839;48.546;-4.178;2023-05-10T14:10:30;4.00;;;1.05;;
62796;SDS011;48839;48.546;-4.178;2023-05-10T14:12:56;1.88;;;0.75;;
62796;SDS011;48839;48.546;-4.178;2023-05-10T14:15:22;1.40;;;0.75;;
62796;SDS011;48839;48.546;-4.178;2023-05-10T14:17:48;4.32;;;0.85;;
62796;SDS011;48839;48.546;-4.178;2023-05-10T14:20:14;3.45;;;0.65;;
62796;SDS011;48839;48.546;-4.178;2023-05-10T14:22:40;3.08;;;0.77;;
62796;SDS011;48839;48.546;-4.178;2023-05-10T14:25:07;2.92;;;0.73;;
62796;SDS011;48839;48.546;-4.178;2023-05-10T14:27:33;2.35;;;0.45;;
62796;SDS011;48839;48.546;-4.178;2023-05-10T14:29:59;3.20;;;0.70;;
62796;SDS011;48839;48.546;-4.178;2023-05-10T14:32:25;4.93;;;0.90;;
62796;SDS011;48839;48.546;-4.178;2023-05-10T14:34:52;2.25;;;0.60;;
62796;SDS011;48839;48.546;-4.178;2023-05-10T14:37:18;1.38;;;0.57;;
62796;SDS011;48839;48.546;-4.178;2023-05-10T14:39:44;3.85;;;1.00;;
62796;SDS011;48839;48.546;-4.178;2023-05-10T14:42:10;0.93;;;0.55;;
62796;SDS011;48839;48.546;-4.178;2023-05-10T14:44:36;0.45;;;0.40;;
62796;SDS011;48839;48.546;-4.178;2023-05-10T14:47:02;2.90;;;0.65;;
62796;SDS011;48839;48.546;-4.178;2023-05-10T14:49:28;2.78;;;0.90;;
62796;SDS011;48839;48.546;-4.178;2023-05-10T14:51:54;1.50;;;0.80;;
62796;SDS011;48839;48.546;-4.178;2023-05-10T14:54:20;4.20;;;0.70;;
62796;SDS011;48839;48.546;-4.178;2023-05-10T14:56:46;3.00;;;0.90;;
62796;SDS011;48839;48.546;-4.178;2023-05-10T14:59:14;3.17;;;0.80;;
62796;SDS011;48839;48.546;-4.178;2023-05-10T15:01:40;4.28;;;0.98;;
62796;SDS011;48839;48.546;-4.178;2023-05-10T15:04:07;4.68;;;1.30;;
62796;SDS011;48839;48.546;-4.178;2023-05-10T15:06:33;3.72;;;0.75;;
62796;SDS011;48839;48.546;-4.178;2023-05-10T15:09:00;5.57;;;1.02;;
62796;SDS011;48839;48.546;-4.178;2023-05-10T15:11:26;4.00;;;0.90;;